Time;durP1;ratioP1;P1;durP2;ratioP2;P2;SDS_P1;SDS_P2;PMS_P1;PMS_P2;Temp;Humidity;BMP_temperature;BMP_pressure;BME280_temperature;BME280_humidity;BME280_pressure;Samples;Min_cycle;Max_cycle;Signal;HPM_P1;HPM_P2
2023/09/27 00:00:23;;;;;;;8.20;5.80;;;;;;;;;;5049056;28;20072;-66
2023/09/27 00:02:49;;;;;;;8.68;6.18;;;;;;;;;;5056966;28;20450;-66
2023/09/27 00:05:16;;;;;;;7.32;5.30;;;;;;;;;;5065363;28;20877;-66
2023/09/27 00:07:41;;;;;;;9.48;5.63;;;;;;;;;;5049946;28;20016;-66
2023/09/27 00:10:09;;;;;;;8.25;6.03;;;;;;;;;;5049212;28;20078;-66
2023/09/27 00:12:35;;;;;;;8.88;5.40;;;;;;;;;;5037759;28;20843;-66
2023/09/27 00:15:03;;;;;;;7.85;5.45;;;;;;;;;;5056646;28;20035;-66
2023/09/27 00:17:29;;;;;;;8.93;5.80;;;;;;;;;;5049840;28;20408;-66
2023/09/27 00:19:54;;;;;;;7.10;5.65;;;;;;;;;;5072314;28;20514;-66
2023/09/27 00:22:19;;;;;;;10.07;6.57;;;;;;;;;;5078613;28;20020;-65
2023/09/27 00:24:45;;;;;;;8.88;6.18;;;;;;;;;;5072816;28;20405;-66
2023/09/27 00:27:13;;;;;;;8.50;6.17;;;;;;;;;;5081239;28;20020;-66
2023/09/27 00:29:38;;;;;;;8.77;6.68;;;;;;;;;;5084395;28;20694;-66
2023/09/27 00:32:04;;;;;;;9.95;6.03;;;;;;;;;;5058780;28;20028;-66
2023/09/27 00:34:29;;;;;;;8.15;5.93;;;;;;;;;;5050818;28;20941;-66
2023/09/27 00:36:54;;;;;;;8.33;6.33;;;;;;;;;;5047829;28;20865;-65
2023/09/27 00:39:20;;;;;;;7.95;6.32;;;;;;;;;;5049414;28;20703;-66
2023/09/27 00:41:45;;;;;;;8.20;6.50;;;;;;;;;;5037472;28;20913;-66
2023/09/27 00:44:10;;;;;;;9.10;6.05;;;;;;;;;;5039261;28;21040;-66
2023/09/27 00:46:36;;;;;;;8.57;6.28;;;;;;;;;;5082391;28;20085;-66
2023/09/27 00:49:01;;;;;;;6.88;6.00;;;;;;;;;;5087531;28;20391;-65
2023/09/27 00:51:26;;;;;;;7.95;6.53;;;;;;;;;;5044774;28;20032;-65
2023/09/27 00:53:52;;;;;;;7.28;5.65;;;;;;;;;;5049242;28;20041;-66
2023/09/27 00:56:18;;;;;;;9.60;6.75;;;;;;;;;;5048699;28;20482;-65
2023/09/27 00:58:43;;;;;;;7.97;6.20;;;;;;;;;;5071886;28;20050;-65
2023/09/27 01:01:09;;;;;;;7.00;5.90;;;;;;;;;;5065499;28;20051;-65
2023/09/27 01:03:34;;;;;;;10.07;7.13;;;;;;;;;;5072285;28;20027;-67
2023/09/27 01:05:59;;;;;;;9.05;6.75;;;;;;;;;;5043028;28;20278;-68
2023/09/27 01:08:25;;;;;;;9.48;6.97;;;;;;;;;;5052903;28;20146;-67
2023/09/27 01:10:50;;;;;;;9.35;7.45;;;;;;;;;;5061627;28;20814;-67
2023/09/27 01:13:15;;;;;;;7.80;6.18;;;;;;;;;;5043403;28;20049;-67
2023/09/27 01:15:40;;;;;;;8.30;7.10;;;;;;;;;;5053615;28;20016;-67
2023/09/27 01:18:06;;;;;;;9.52;6.50;;;;;;;;;;5054315;28;20355;-67
2023/09/27 01:20:32;;;;;;;11.55;6.80;;;;;;;;;;5076535;28;20048;-67
2023/09/27 01:22:59;;;;;;;8.20;6.35;;;;;;;;;;5074501;28;20477;-67
2023/09/27 01:25:26;;;;;;;7.47;6.68;;;;;;;;;;5063252;28;20069;-65
2023/09/27 01:27:51;;;;;;;8.10;6.18;;;;;;;;;;5054237;28;20032;-66
2023/09/27 01:30:17;;;;;;;10.10;6.60;;;;;;;;;;5066116;28;20390;-65
2023/09/27 01:32:42;;;;;;;8.60;6.50;;;;;;;;;;5032912;28;20106;-66
2023/09/27 01:35:08;;;;;;;8.25;6.93;;;;;;;;;;5070007;28;20365;-66
2023/09/27 01:37:33;;;;;;;12.07;7.15;;;;;;;;;;5048823;28;20988;-67
2023/09/27 01:39:58;;;;;;;7.35;6.25;;;;;;;;;;5049616;28;20028;-67
2023/09/27 01:42:24;;;;;;;8.10;6.20;;;;;;;;;;5048262;28;20080;-68
2023/09/27 01:44:49;;;;;;;8.82;7.20;;;;;;;;;;5051947;28;20921;-68
2023/09/27 01:47:14;;;;;;;9.20;7.57;;;;;;;;;;5047497;28;20551;-67
2023/09/27 01:49:40;;;;;;;12.95;7.65;;;;;;;;;;5052257;28;20024;-68
2023/09/27 01:52:05;;;;;;;9.02;6.85;;;;;;;;;;5049628;28;20025;-66
2023/09/27 01:54:30;;;;;;;8.48;6.10;;;;;;;;;;5079992;28;20035;-65
2023/09/27 01:56:56;;;;;;;8.10;5.57;;;;;;;;;;5073523;28;20139;-65
2023/09/27 01:59:21;;;;;;;8.98;6.20;;;;;;;;;;5046627;28;20131;-65
2023/09/27 02:01:46;;;;;;;7.93;6.55;;;;;;;;;;5046892;28;20042;-65
2023/09/27 02:04:11;;;;;;;10.25;5.75;;;;;;;;;;5049054;28;20859;-65
2023/09/27 02:06:37;;;;;;;9.38;6.18;;;;;;;;;;5057980;28;20111;-65
2023/09/27 02:09:03;;;;;;;7.72;6.38;;;;;;;;;;5052975;28;20039;-65
2023/09/27 02:11:28;;;;;;;10.70;6.18;;;;;;;;;;5051411;28;20062;-65
2023/09/27 02:13:54;;;;;;;9.50;6.25;;;;;;;;;;5047698;28;20869;-65
2023/09/27 02:16:19;;;;;;;7.88;6.25;;;;;;;;;;5073591;28;20104;-66
2023/09/27 02:18:45;;;;;;;11.68;6.40;;;;;;;;;;5040616;28;20027;-66
2023/09/27 02:21:11;;;;;;;7.75;6.30;;;;;;;;;;5037682;28;20054;-66
2023/09/27 02:23:36;;;;;;;9.20;6.32;;;;;;;;;;5041393;28;20097;-66
2023/09/27 02:26:02;;;;;;;10.20;6.38;;;;;;;;;;5040161;28;20163;-66
2023/09/27 02:28:27;;;;;;;11.73;5.80;;;;;;;;;;5057448;28;20031;-66
2023/09/27 02:30:53;;;;;;;6.95;5.78;;;;;;;;;;5086918;28;20933;-66
2023/09/27 02:33:20;;;;;;;7.88;6.20;;;;;;;;;;5077360;28;20031;-66
2023/09/27 02:35:45;;;;;;;8.10;6.43;;;;;;;;;;5073273;28;20032;-65
2023/09/27 02:38:10;;;;;;;9.13;6.78;;;;;;;;;;5047888;28;20139;-65
2023/09/27 02:40:36;;;;;;;9.18;6.13;;;;;;;;;;5057360;28;20051;-65
2023/09/27 02:43:02;;;;;;;6.85;5.22;;;;;;;;;;5081040;28;20055;-65
2023/09/27 02:45:27;;;;;;;9.65;6.65;;;;;;;;;;5088936;28;20024;-65
2023/09/27 02:47:53;;;;;;;10.05;6.13;;;;;;;;;;5082730;28;20016;-65
2023/09/27 02:50:18;;;;;;;6.32;5.28;;;;;;;;;;5092817;28;20073;-66
2023/09/27 02:52:43;;;;;;;9.13;6.33;;;;;;;;;;5065924;28;20064;-66
2023/09/27 02:55:09;;;;;;;10.68;6.25;;;;;;;;;;5086996;28;20310;-66
2023/09/27 02:57:34;;;;;;;7.93;5.93;;;;;;;;;;5051595;28;20032;-66
2023/09/27 02:59:59;;;;;;;9.55;5.82;;;;;;;;;;5051047;28;20035;-66
2023/09/27 03:02:24;;;;;;;7.97;5.77;;;;;;;;;;5047470;28;20135;-65
2023/09/27 03:04:50;;;;;;;6.80;5.77;;;;;;;;;;5064633;28;20278;-65
2023/09/27 03:07:15;;;;;;;10.13;6.03;;;;;;;;;;5086611;28;20297;-65
2023/09/27 03:09:40;;;;;;;9.75;6.70;;;;;;;;;;5080668;28;20275;-65
2023/09/27 03:12:06;;;;;;;8.20;7.05;;;;;;;;;;5079051;28;20111;-65
2023/09/27 03:14:32;;;;;;;8.63;7.13;;;;;;;;;;5055250;28;20847;-66
2023/09/27 03:16:57;;;;;;;8.70;5.80;;;;;;;;;;5089300;28;20077;-66
2023/09/27 03:19:23;;;;;;;7.93;6.50;;;;;;;;;;5087050;28;20387;-66
2023/09/27 03:21:48;;;;;;;10.65;6.32;;;;;;;;;;5082054;28;20012;-66
2023/09/27 03:24:13;;;;;;;7.10;6.00;;;;;;;;;;5053879;28;20029;-66
2023/09/27 03:26:38;;;;;;;8.90;6.93;;;;;;;;;;5067297;28;20044;-66
2023/09/27 03:29:04;;;;;;;10.37;6.10;;;;;;;;;;5057722;28;20820;-66
2023/09/27 03:31:30;;;;;;;8.75;6.85;;;;;;;;;;5064925;28;20625;-66
2023/09/27 03:33:55;;;;;;;7.82;6.60;;;;;;;;;;5077748;28;20101;-65
2023/09/27 03:36:20;;;;;;;8.73;6.95;;;;;;;;;;5085512;28;20025;-66
2023/09/27 03:38:46;;;;;;;9.70;6.90;;;;;;;;;;5086936;28;20042;-66
2023/09/27 03:41:14;;;;;;;8.88;6.38;;;;;;;;;;5079190;28;20478;-65
2023/09/27 03:43:39;;;;;;;14.52;7.38;;;;;;;;;;5070092;28;20497;-65
2023/09/27 03:46:04;;;;;;;7.93;6.45;;;;;;;;;;5090968;28;20060;-66
2023/09/27 03:48:30;;;;;;;8.60;6.82;;;;;;;;;;5037151;28;20021;-66
2023/09/27 03:50:56;;;;;;;8.85;6.10;;;;;;;;;;5042762;28;20024;-66
2023/09/27 03:53:21;;;;;;;9.45;6.90;;;;;;;;;;5042678;28;20023;-66
2023/09/27 03:55:46;;;;;;;9.27;7.07;;;;;;;;;;5060183;28;20518;-66
2023/09/27 03:58:11;;;;;;;9.83;6.30;;;;;;;;;;5074194;28;20037;-65
2023/09/27 04:00:36;;;;;;;10.47;6.30;;;;;;;;;;5074838;28;20317;-66
2023/09/27 04:03:02;;;;;;;13.10;7.43;;;;;;;;;;5087853;28;20278;-66
2023/09/27 04:05:27;;;;;;;7.97;6.30;;;;;;;;;;5082181;28;20312;-65
2023/09/27 04:07:52;;;;;;;10.13;7.40;;;;;;;;;;5075857;28;20021;-66
2023/09/27 04:10:19;;;;;;;10.27;7.20;;;;;;;;;;5077022;28;20035;-66
2023/09/27 04:12:44;;;;;;;10.00;7.28;;;;;;;;;;5085756;28;20120;-66
2023/09/27 04:15:10;;;;;;;8.90;6.80;;;;;;;;;;5084698;28;20486;-66
2023/09/27 04:17:37;;;;;;;9.45;6.88;;;;;;;;;;5087757;28;20031;-66
2023/09/27 04:20:06;;;;;;;9.48;7.20;;;;;;;;;;5083681;28;20061;-66
2023/09/27 04:22:32;;;;;;;11.77;7.25;;;;;;;;;;5088935;28;20050;-66
2023/09/27 04:24:57;;;;;;;11.00;7.15;;;;;;;;;;5063533;28;20866;-66
2023/09/27 04:27:22;;;;;;;10.10;8.30;;;;;;;;;;5034223;28;20830;-65
2023/09/27 04:29:50;;;;;;;9.60;7.35;;;;;;;;;;5068917;28;20276;-65
2023/09/27 04:32:15;;;;;;;8.23;6.57;;;;;;;;;;5070943;28;20085;-66
2023/09/27 04:34:41;;;;;;;9.95;6.45;;;;;;;;;;5065211;28;20028;-66
2023/09/27 04:37:06;;;;;;;9.55;6.57;;;;;;;;;;5074983;28;20562;-66
2023/09/27 04:39:31;;;;;;;10.45;8.10;;;;;;;;;;5075116;28;20065;-66
2023/09/27 04:41:57;;;;;;;8.45;6.93;;;;;;;;;;5079480;28;20035;-67
2023/09/27 04:44:22;;;;;;;9.63;7.68;;;;;;;;;;5089854;28;20453;-66
2023/09/27 04:46:48;;;;;;;8.90;7.35;;;;;;;;;;5075900;28;20024;-66
2023/09/27 04:49:13;;;;;;;10.23;7.30;;;;;;;;;;5064243;28;20024;-66
2023/09/27 04:51:39;;;;;;;9.48;8.38;;;;;;;;;;5053524;28;20016;-67
2023/09/27 04:54:04;;;;;;;11.38;7.28;;;;;;;;;;5085394;28;20102;-67
2023/09/27 04:56:33;;;;;;;13.98;8.38;;;;;;;;;;5084948;28;20020;-67
2023/09/27 04:59:01;;;;;;;8.25;7.07;;;;;;;;;;5084133;28;20501;-67
2023/09/27 05:01:26;;;;;;;9.95;7.85;;;;;;;;;;5083415;28;20467;-66
2023/09/27 05:03:51;;;;;;;8.80;7.82;;;;;;;;;;5089686;28;20028;-67
2023/09/27 05:06:17;;;;;;;10.35;8.07;;;;;;;;;;5075922;28;20028;-67
2023/09/27 05:08:42;;;;;;;10.73;7.60;;;;;;;;;;5090030;28;20055;-67
2023/09/27 05:11:07;;;;;;;11.98;8.30;;;;;;;;;;5075698;28;20025;-67
2023/09/27 05:13:33;;;;;;;11.13;8.02;;;;;;;;;;5080422;28;20024;-67
2023/09/27 05:15:58;;;;;;;8.20;7.32;;;;;;;;;;5083498;28;20048;-67
2023/09/27 05:18:23;;;;;;;10.67;8.23;;;;;;;;;;5090246;28;20024;-67
2023/09/27 05:20:48;;;;;;;8.77;7.68;;;;;;;;;;5084314;28;20274;-66
2023/09/27 05:23:14;;;;;;;9.98;7.25;;;;;;;;;;5076098;28;20020;-67
2023/09/27 05:25:39;;;;;;;8.27;7.03;;;;;;;;;;5077004;28;20027;-67
2023/09/27 05:28:04;;;;;;;9.18;7.03;;;;;;;;;;5080004;28;20012;-66
2023/09/27 05:30:30;;;;;;;9.07;7.07;;;;;;;;;;5073768;28;20032;-67
2023/09/27 05:32:56;;;;;;;8.10;7.00;;;;;;;;;;5084523;28;20059;-65
2023/09/27 05:35:22;;;;;;;9.48;7.88;;;;;;;;;;5051702;28;20127;-66
2023/09/27 05:37:49;;;;;;;12.02;6.80;;;;;;;;;;5079919;28;20058;-66
2023/09/27 05:40:14;;;;;;;9.48;7.63;;;;;;;;;;5080632;28;20020;-66
2023/09/27 05:42:40;;;;;;;8.80;6.68;;;;;;;;;;5080009;28;20420;-66
2023/09/27 05:45:06;;;;;;;9.77;7.22;;;;;;;;;;5084161;28;20059;-66
2023/09/27 05:47:34;;;;;;;8.73;7.18;;;;;;;;;;5072788;28;20016;-66
2023/09/27 05:49:59;;;;;;;9.23;6.57;;;;;;;;;;5072491;28;20032;-66
2023/09/27 05:52:25;;;;;;;10.75;8.30;;;;;;;;;;5086531;28;20039;-66
2023/09/27 05:54:51;;;;;;;9.93;7.25;;;;;;;;;;5092924;28;20036;-66
2023/09/27 05:57:16;;;;;;;12.45;8.13;;;;;;;;;;5092415;28;20035;-66
2023/09/27 05:59:44;;;;;;;8.93;6.85;;;;;;;;;;5091702;28;20027;-66
2023/09/27 06:02:16;;;;;;;10.07;7.47;;;;;;;;;;5093587;28;20070;-66
2023/09/27 06:04:41;;;;;;;10.82;7.93;;;;;;;;;;5092841;28;20020;-66
2023/09/27 06:07:07;;;;;;;11.18;7.28;;;;;;;;;;5092897;28;20035;-66
2023/09/27 06:09:32;;;;;;;10.75;7.93;;;;;;;;;;5090717;28;20391;-67
2023/09/27 06:11:57;;;;;;;12.80;8.97;;;;;;;;;;5092962;28;20032;-66
2023/09/27 06:14:23;;;;;;;8.77;7.75;;;;;;;;;;5091611;28;20274;-66
2023/09/27 06:16:48;;;;;;;11.65;8.45;;;;;;;;;;5092201;28;20470;-66
2023/09/27 06:19:13;;;;;;;11.68;8.48;;;;;;;;;;5091723;28;20344;-66
2023/09/27 06:21:39;;;;;;;14.48;10.35;;;;;;;;;;5092039;28;20071;-66
2023/09/27 06:24:07;;;;;;;15.15;12.23;;;;;;;;;;5090336;28;20020;-66
2023/09/27 06:26:33;;;;;;;17.13;11.95;;;;;;;;;;5085123;28;20486;-66
2023/09/27 06:28:58;;;;;;;16.60;11.70;;;;;;;;;;5074062;28;20048;-66
2023/09/27 06:31:24;;;;;;;14.52;12.80;;;;;;;;;;5071293;28;20021;-66
2023/09/27 06:33:49;;;;;;;17.25;14.27;;;;;;;;;;5090835;28;20426;-66
2023/09/27 06:36:16;;;;;;;19.42;12.95;;;;;;;;;;5092427;28;20316;-67
2023/09/27 06:38:41;;;;;;;13.25;9.70;;;;;;;;;;5091045;28;20081;-66
2023/09/27 06:41:08;;;;;;;9.75;8.75;;;;;;;;;;5092708;28;20032;-67
2023/09/27 06:43:33;;;;;;;11.00;8.77;;;;;;;;;;5072788;28;20084;-68
2023/09/27 06:46:01;;;;;;;10.43;9.15;;;;;;;;;;5040830;28;20024;-65
2023/09/27 06:48:27;;;;;;;14.27;8.10;;;;;;;;;;5049008;28;20854;-67
2023/09/27 06:50:53;;;;;;;11.35;7.93;;;;;;;;;;5044134;28;20031;-67
2023/09/27 06:53:18;;;;;;;10.95;7.68;;;;;;;;;;5042755;28;20020;-66
2023/09/27 06:55:49;;;;;;;13.15;8.05;;;;;;;;;;5068764;28;20054;-66
2023/09/27 06:58:15;;;;;;;15.05;8.45;;;;;;;;;;5081567;28;20431;-66
2023/09/27 07:00:41;;;;;;;10.18;8.38;;;;;;;;;;5078731;28;20107;-66
2023/09/27 07:03:06;;;;;;;13.02;11.18;;;;;;;;;;5081426;28;20419;-66
2023/09/27 07:05:32;;;;;;;17.13;14.05;;;;;;;;;;5078613;28;20013;-67
2023/09/27 07:07:58;;;;;;;18.05;15.13;;;;;;;;;;5093400;28;20493;-66
2023/09/27 07:10:23;;;;;;;18.17;15.15;;;;;;;;;;5078585;28;20025;-66
2023/09/27 07:12:48;;;;;;;18.67;15.35;;;;;;;;;;5080683;28;20020;-67
2023/09/27 07:15:14;;;;;;;16.35;12.48;;;;;;;;;;5049097;28;20024;-66
2023/09/27 07:17:39;;;;;;;16.70;12.10;;;;;;;;;;5074312;28;20194;-66
2023/09/27 07:20:23;;;;;;;15.18;12.07;;;;;;;;;;5083224;28;20363;-66
2023/09/27 07:22:48;;;;;;;20.15;13.63;;;;;;;;;;5081347;28;20024;-66
2023/09/27 07:25:18;;;;;;;18.38;13.60;;;;;;;;;;5076884;28;20456;-66
2023/09/27 07:27:44;;;;;;;18.55;14.13;;;;;;;;;;5090914;28;20032;-66
2023/09/27 07:30:17;;;;;;;20.42;14.30;;;;;;;;;;5092749;28;20077;-66
2023/09/27 07:32:43;;;;;;;17.77;14.47;;;;;;;;;;5090590;28;20095;-67
2023/09/27 07:35:09;;;;;;;18.13;13.68;;;;;;;;;;5085268;28;20393;-67
2023/09/27 07:37:36;;;;;;;17.90;13.13;;;;;;;;;;5080303;28;20040;-66
2023/09/27 07:40:09;;;;;;;15.77;12.52;;;;;;;;;;5076738;28;20039;-66
2023/09/27 07:42:35;;;;;;;21.05;12.45;;;;;;;;;;5090788;28;20107;-66
2023/09/27 07:45:01;;;;;;;18.05;12.30;;;;;;;;;;5084235;28;20082;-66
2023/09/27 07:47:26;;;;;;;13.32;11.00;;;;;;;;;;5065961;28;20023;-66
2023/09/27 07:49:52;;;;;;;16.05;11.50;;;;;;;;;;5040047;28;20032;-66
2023/09/27 07:52:17;;;;;;;12.85;9.15;;;;;;;;;;5081502;28;20044;-66
2023/09/27 07:54:45;;;;;;;13.32;10.93;;;;;;;;;;5085516;28;20020;-66
2023/09/27 07:57:11;;;;;;;15.30;10.23;;;;;;;;;;5082644;28;20569;-66
2023/09/27 07:59:36;;;;;;;11.20;8.90;;;;;;;;;;5075996;28;20031;-66
2023/09/27 08:02:01;;;;;;;10.83;9.20;;;;;;;;;;5083975;28;20028;-66
2023/09/27 08:04:26;;;;;;;13.03;9.27;;;;;;;;;;5076188;28;20307;-66
2023/09/27 08:06:52;;;;;;;10.27;8.73;;;;;;;;;;5072640;28;20274;-66
2023/09/27 08:09:21;;;;;;;9.60;8.60;;;;;;;;;;5073111;28;20107;-66
2023/09/27 08:11:46;;;;;;;11.30;8.88;;;;;;;;;;5073009;28;20471;-66
2023/09/27 08:14:13;;;;;;;14.93;9.05;;;;;;;;;;5071703;28;20021;-66
2023/09/27 08:16:39;;;;;;;13.63;8.07;;;;;;;;;;5072846;28;20521;-66
2023/09/27 08:19:04;;;;;;;11.65;8.60;;;;;;;;;;5072582;28;20068;-66
2023/09/27 08:21:30;;;;;;;8.20;6.93;;;;;;;;;;5073199;28;20029;-66
2023/09/27 08:23:55;;;;;;;9.38;7.05;;;;;;;;;;5073141;28;20025;-66
2023/09/27 08:26:20;;;;;;;9.15;7.13;;;;;;;;;;5072881;28;20032;-66
2023/09/27 08:28:46;;;;;;;9.65;6.72;;;;;;;;;;5088392;28;20519;-66
2023/09/27 08:31:11;;;;;;;7.75;5.70;;;;;;;;;;5092148;28;20027;-66
2023/09/27 08:33:36;;;;;;;9.37;5.37;;;;;;;;;;5076443;28;20386;-65
2023/09/27 08:36:02;;;;;;;8.27;5.28;;;;;;;;;;5072810;28;20281;-66
2023/09/27 08:38:27;;;;;;;8.18;5.30;;;;;;;;;;5072182;28;20699;-66
2023/09/27 08:40:52;;;;;;;6.38;4.95;;;;;;;;;;5081099;28;20065;-66
2023/09/27 08:43:19;;;;;;;7.70;4.70;;;;;;;;;;5082960;28;20073;-66
2023/09/27 08:45:45;;;;;;;6.78;4.45;;;;;;;;;;5092226;28;20078;-66
2023/09/27 08:48:13;;;;;;;6.63;4.43;;;;;;;;;;5091681;28;20035;-66
2023/09/27 08:50:38;;;;;;;7.07;4.43;;;;;;;;;;5079633;28;20023;-67
2023/09/27 08:53:04;;;;;;;6.45;4.25;;;;;;;;;;5091890;28;20024;-66
2023/09/27 08:55:30;;;;;;;6.15;4.10;;;;;;;;;;5081202;28;20100;-66
2023/09/27 08:57:55;;;;;;;6.60;4.32;;;;;;;;;;5084643;28;20024;-66
2023/09/27 09:00:22;;;;;;;6.32;3.55;;;;;;;;;;5074538;28;20124;-66
2023/09/27 09:02:49;;;;;;;6.90;3.53;;;;;;;;;;5080113;28;20035;-66
2023/09/27 09:05:15;;;;;;;9.13;5.85;;;;;;;;;;5081486;28;20032;-66
2023/09/27 09:07:40;;;;;;;10.15;7.22;;;;;;;;;;5087950;28;20029;-66
2023/09/27 09:10:09;;;;;;;11.77;9.30;;;;;;;;;;5074749;28;20059;-66
2023/09/27 09:12:35;;;;;;;8.82;5.75;;;;;;;;;;5074519;28;20433;-66
2023/09/27 09:15:04;;;;;;;5.82;3.50;;;;;;;;;;5072080;28;20107;-66
2023/09/27 09:17:34;;;;;;;5.95;4.00;;;;;;;;;;5091881;28;20024;-66
2023/09/27 09:20:20;;;;;;;5.32;3.08;;;;;;;;;;5080510;28;20036;-66
2023/09/27 09:22:46;;;;;;;4.93;3.30;;;;;;;;;;5073408;28;20029;-66
2023/09/27 09:25:11;;;;;;;5.75;2.72;;;;;;;;;;5074896;28;20145;-66
2023/09/27 09:27:37;;;;;;;5.13;2.80;;;;;;;;;;5045917;28;20025;-67
2023/09/27 09:30:06;;;;;;;6.18;3.03;;;;;;;;;;5072682;28;20267;-66
2023/09/27 09:32:32;;;;;;;4.72;2.90;;;;;;;;;;5082870;28;20020;-67
2023/09/27 09:34:57;;;;;;;4.15;2.55;;;;;;;;;;5075025;28;20398;-66
2023/09/27 09:37:23;;;;;;;6.00;2.23;;;;;;;;;;5077965;28;20466;-66
2023/09/27 09:39:49;;;;;;;4.35;2.50;;;;;;;;;;5091002;28;20289;-66
2023/09/27 09:42:35;;;;;;;4.68;2.90;;;;;;;;;;5090320;28;20078;-66
2023/09/27 09:45:05;;;;;;;3.50;1.90;;;;;;;;;;5085456;28;20047;-66
2023/09/27 09:47:30;;;;;;;3.72;2.33;;;;;;;;;;5089976;28;20077;-66
2023/09/27 09:49:56;;;;;;;3.75;2.17;;;;;;;;;;5084491;28;20013;-66
2023/09/27 09:52:25;;;;;;;3.60;2.47;;;;;;;;;;5074631;28;20018;-66
2023/09/27 09:54:53;;;;;;;3.90;2.30;;;;;;;;;;5072378;28;20287;-66
2023/09/27 09:57:19;;;;;;;3.58;2.00;;;;;;;;;;5072343;28;20029;-66
2023/09/27 09:59:45;;;;;;;4.55;2.10;;;;;;;;;;5084232;28;20487;-66
2023/09/27 10:02:23;;;;;;;3.25;2.05;;;;;;;;;;5074131;28;20119;-66
2023/09/27 10:04:52;;;;;;;3.45;1.73;;;;;;;;;;5090269;28;20024;-67
2023/09/27 10:07:20;;;;;;;4.55;2.20;;;;;;;;;;5091628;28;20032;-66
2023/09/27 10:09:47;;;;;;;4.80;2.42;;;;;;;;;;5085948;28;20024;-66
2023/09/27 10:12:13;;;;;;;3.78;2.25;;;;;;;;;;5078939;28;20023;-66
2023/09/27 10:14:38;;;;;;;4.18;2.22;;;;;;;;;;5082948;28;20042;-67
2023/09/27 10:17:04;;;;;;;5.53;2.38;;;;;;;;;;5065193;28;20028;-67
2023/09/27 10:19:29;;;;;;;4.17;2.20;;;;;;;;;;5083797;28;20099;-66
2023/09/27 10:22:04;;;;;;;3.85;2.25;;;;;;;;;;5082810;28;21706;-66
2023/09/27 10:24:29;;;;;;;5.82;2.40;;;;;;;;;;5074705;28;20070;-66
2023/09/27 10:26:55;;;;;;;5.10;2.60;;;;;;;;;;5076684;28;20055;-66
2023/09/27 10:29:21;;;;;;;4.70;2.30;;;;;;;;;;5080831;28;20028;-66
2023/09/27 10:31:56;;;;;;;4.88;2.40;;;;;;;;;;5088430;28;20285;-65
2023/09/27 10:34:24;;;;;;;3.80;1.88;;;;;;;;;;5074523;28;20040;-65
2023/09/27 10:36:49;;;;;;;4.60;2.40;;;;;;;;;;5037121;28;20041;-65
2023/09/27 10:39:15;;;;;;;4.30;2.70;;;;;;;;;;5042385;28;20135;-65
2023/09/27 10:41:49;;;;;;;5.03;2.70;;;;;;;;;;5061586;28;20322;-66
2023/09/27 10:44:28;;;;;;;4.65;2.80;;;;;;;;;;5087560;28;20371;-65
2023/09/27 10:46:53;;;;;;;5.35;3.45;;;;;;;;;;5089963;28;20060;-65
2023/09/27 10:49:20;;;;;;;6.75;2.30;;;;;;;;;;5093267;28;20093;-66
2023/09/27 10:51:45;;;;;;;6.47;2.67;;;;;;;;;;5078605;28;20047;-65
2023/09/27 10:54:10;;;;;;;4.85;2.63;;;;;;;;;;5060023;28;21059;-66
2023/09/27 10:56:36;;;;;;;6.00;2.50;;;;;;;;;;5048741;28;20023;-67
2023/09/27 10:59:02;;;;;;;5.82;2.78;;;;;;;;;;5071833;28;20028;-65
2023/09/27 11:01:28;;;;;;;5.38;2.58;;;;;;;;;;5092333;28;20036;-65
2023/09/27 11:04:03;;;;;;;5.50;2.60;;;;;;;;;;5092955;28;20019;-65
2023/09/27 11:06:29;;;;;;;5.18;2.80;;;;;;;;;;5092485;28;20065;-65
2023/09/27 11:09:07;;;;;;;5.70;2.78;;;;;;;;;;5090321;28;20382;-66
2023/09/27 11:11:33;;;;;;;5.97;2.78;;;;;;;;;;5092003;28;20036;-66
2023/09/27 11:13:59;;;;;;;5.20;3.30;;;;;;;;;;5091098;28;20016;-66
2023/09/27 11:16:24;;;;;;;6.53;2.70;;;;;;;;;;5091941;28;20081;-66
2023/09/27 11:18:51;;;;;;;4.75;2.97;;;;;;;;;;5091485;28;20027;-66
2023/09/27 11:21:17;;;;;;;4.50;2.70;;;;;;;;;;5066366;28;20085;-66
2023/09/27 11:23:59;;;;;;;5.40;2.53;;;;;;;;;;5049656;28;20019;-67
2023/09/27 11:26:28;;;;;;;5.68;2.28;;;;;;;;;;5049761;28;20016;-66
2023/09/27 11:29:01;;;;;;;4.38;2.30;;;;;;;;;;5049343;28;20028;-66
2023/09/27 11:31:28;;;;;;;5.43;2.50;;;;;;;;;;5047872;28;20032;-66
2023/09/27 11:34:09;;;;;;;4.00;2.40;;;;;;;;;;5046987;28;20020;-66
2023/09/27 11:36:38;;;;;;;6.20;2.92;;;;;;;;;;5046009;28;20048;-66
2023/09/27 11:39:04;;;;;;;4.15;2.17;;;;;;;;;;5042523;28;20087;-66
2023/09/27 11:41:30;;;;;;;4.15;2.55;;;;;;;;;;5050419;28;20864;-66
2023/09/27 11:43:55;;;;;;;4.65;2.20;;;;;;;;;;5041307;28;20029;-66
2023/09/27 11:46:31;;;;;;;5.43;2.50;;;;;;;;;;5045655;28;20866;-66
2023/09/27 11:49:06;;;;;;;5.78;2.25;;;;;;;;;;5043040;28;20126;-67
2023/09/27 11:51:32;;;;;;;5.43;2.22;;;;;;;;;;5085336;28;20167;-66
2023/09/27 11:53:57;;;;;;;5.47;2.85;;;;;;;;;;5072279;28;20528;-66
2023/09/27 11:56:22;;;;;;;4.10;1.70;;;;;;;;;;5089466;28;20470;-65
2023/09/27 11:58:48;;;;;;;5.47;3.30;;;;;;;;;;5087198;28;20425;-65
2023/09/27 12:01:13;;;;;;;4.77;3.00;;;;;;;;;;5055568;28;20330;-66
2023/09/27 12:03:38;;;;;;;6.63;2.83;;;;;;;;;;5040908;28;20024;-66
2023/09/27 12:06:06;;;;;;;3.30;2.10;;;;;;;;;;5051645;28;20055;-66
2023/09/27 12:08:31;;;;;;;3.90;2.13;;;;;;;;;;5049765;28;20020;-66
2023/09/27 12:10:56;;;;;;;6.23;2.00;;;;;;;;;;5064145;28;20027;-66
2023/09/27 12:13:22;;;;;;;4.27;1.97;;;;;;;;;;5083151;28;20794;-66
2023/09/27 12:15:50;;;;;;;4.32;2.42;;;;;;;;;;5077961;28;20274;-65
2023/09/27 12:18:15;;;;;;;5.05;2.08;;;;;;;;;;5085224;28;20042;-66
2023/09/27 12:20:40;;;;;;;8.13;2.13;;;;;;;;;;5085656;28;20032;-66
2023/09/27 12:23:06;;;;;;;4.10;2.25;;;;;;;;;;5062093;28;20036;-66
2023/09/27 12:25:32;;;;;;;3.25;1.85;;;;;;;;;;5078844;28;20029;-66
2023/09/27 12:27:57;;;;;;;2.83;1.70;;;;;;;;;;5056936;28;20020;-66
2023/09/27 12:30:23;;;;;;;3.87;2.23;;;;;;;;;;5039542;28;20027;-67
2023/09/27 12:32:48;;;;;;;2.85;1.67;;;;;;;;;;5035010;28;20816;-67
2023/09/27 12:35:13;;;;;;;3.25;2.05;;;;;;;;;;5039876;28;20085;-66
2023/09/27 12:37:39;;;;;;;3.33;2.13;;;;;;;;;;5047465;28;20028;-67
2023/09/27 12:40:04;;;;;;;4.13;2.10;;;;;;;;;;5068065;28;20031;-66
2023/09/27 12:42:29;;;;;;;4.05;1.95;;;;;;;;;;5078131;28;20319;-66
2023/09/27 12:44:55;;;;;;;6.00;2.20;;;;;;;;;;5091368;28;20043;-66
2023/09/27 12:47:20;;;;;;;3.43;2.20;;;;;;;;;;5091812;28;20085;-66
2023/09/27 12:49:45;;;;;;;3.53;2.07;;;;;;;;;;5073101;28;20028;-66
2023/09/27 12:52:11;;;;;;;4.17;2.00;;;;;;;;;;5058813;28;20028;-66
2023/09/27 12:54:36;;;;;;;3.90;2.13;;;;;;;;;;5044201;28;20382;-66
2023/09/27 12:57:02;;;;;;;4.78;2.35;;;;;;;;;;5047973;28;20140;-66
2023/09/27 12:59:27;;;;;;;5.57;2.30;;;;;;;;;;5076808;28;20027;-66
2023/09/27 13:01:53;;;;;;;4.30;2.20;;;;;;;;;;5068256;28;20024;-66
2023/09/27 13:04:18;;;;;;;3.40;1.93;;;;;;;;;;5085103;28;20719;-66
2023/09/27 13:06:46;;;;;;;4.50;2.17;;;;;;;;;;5089182;28;20262;-66
2023/09/27 13:09:11;;;;;;;4.13;2.22;;;;;;;;;;5078859;28;20475;-66
2023/09/27 13:11:37;;;;;;;3.60;2.20;;;;;;;;;;5089749;28;20023;-66
2023/09/27 13:14:02;;;;;;;4.60;2.30;;;;;;;;;;5090189;28;20760;-66
2023/09/27 13:16:27;;;;;;;5.70;2.30;;;;;;;;;;5071089;28;21036;-66
2023/09/27 13:18:53;;;;;;;4.10;2.30;;;;;;;;;;5047458;28;20321;-66
2023/09/27 13:21:18;;;;;;;3.70;2.20;;;;;;;;;;5038633;28;20028;-66
2023/09/27 13:23:43;;;;;;;4.07;2.08;;;;;;;;;;5091013;28;20485;-66
2023/09/27 13:26:09;;;;;;;3.50;2.17;;;;;;;;;;5090719;28;20024;-66
2023/09/27 13:28:34;;;;;;;3.65;2.17;;;;;;;;;;5082960;28;20016;-66
2023/09/27 13:30:59;;;;;;;4.57;2.43;;;;;;;;;;5067638;28;20719;-66
2023/09/27 13:33:25;;;;;;;3.50;2.10;;;;;;;;;;5067099;28;20024;-66
2023/09/27 13:35:51;;;;;;;3.50;2.03;;;;;;;;;;5039395;28;20023;-66
2023/09/27 13:38:17;;;;;;;4.70;2.35;;;;;;;;;;5047250;28;20066;-66
2023/09/27 13:40:44;;;;;;;4.18;2.35;;;;;;;;;;5037763;28;20136;-66
2023/09/27 13:43:09;;;;;;;3.40;2.10;;;;;;;;;;5043915;28;20123;-66
2023/09/27 13:45:34;;;;;;;3.88;2.17;;;;;;;;;;5044118;28;20891;-65
2023/09/27 13:47:59;;;;;;;5.32;2.50;;;;;;;;;;5047004;28;20944;-66
2023/09/27 13:50:25;;;;;;;4.43;2.13;;;;;;;;;;5064750;28;20494;-66
2023/09/27 13:52:50;;;;;;;3.40;2.03;;;;;;;;;;5075343;28;20105;-66
2023/09/27 13:55:16;;;;;;;6.18;2.40;;;;;;;;;;5087643;28;20092;-66
2023/09/27 13:57:41;;;;;;;5.83;2.50;;;;;;;;;;5085748;28;20020;-66
2023/09/27 14:00:08;;;;;;;5.05;2.50;;;;;;;;;;5054587;28;20032;-65
2023/09/27 14:02:33;;;;;;;7.20;2.40;;;;;;;;;;5046228;28;20093;-66
2023/09/27 14:04:59;;;;;;;3.60;2.03;;;;;;;;;;5037916;28;20103;-65
2023/09/27 14:07:24;;;;;;;4.13;2.20;;;;;;;;;;5031283;28;20970;-66
2023/09/27 14:09:49;;;;;;;3.83;2.13;;;;;;;;;;5039965;28;20888;-65
2023/09/27 14:12:15;;;;;;;3.72;2.25;;;;;;;;;;5046227;28;20279;-66
2023/09/27 14:14:40;;;;;;;3.72;2.40;;;;;;;;;;5048203;28;20947;-66
2023/09/27 14:17:06;;;;;;;4.57;2.25;;;;;;;;;;5049294;28;20023;-66
2023/09/27 14:19:31;;;;;;;4.97;2.47;;;;;;;;;;5050335;28;20024;-65
2023/09/27 14:21:58;;;;;;;4.50;2.63;;;;;;;;;;5054035;28;20032;-66
2023/09/27 14:24:24;;;;;;;4.40;2.38;;;;;;;;;;5047996;28;20016;-66
2023/09/27 14:26:49;;;;;;;4.38;2.38;;;;;;;;;;5087348;28;20489;-65
2023/09/27 14:29:14;;;;;;;4.63;2.73;;;;;;;;;;5079285;28;20789;-67
2023/09/27 14:31:39;;;;;;;4.10;2.47;;;;;;;;;;5064794;28;20108;-66